createdAt,value
2022-12-11T00:02:24.561Z,-0.99
2022-12-11T00:05:26.152Z,-0.98
2022-12-11T00:08:27.723Z,-0.98
2022-12-11T00:11:29.325Z,-0.97
2022-12-11T00:14:31.910Z,-1.01
2022-12-11T00:17:33.472Z,-1.03
2022-12-11T00:20:35.535Z,-1.07
2022-12-11T00:23:38.621Z,-1.07
2022-12-11T00:26:40.250Z,-1.06
2022-12-11T00:29:41.786Z,-1.06
2022-12-11T00:32:44.138Z,-1.07
2022-12-11T00:35:47.154Z,-1.07
2022-12-11T00:38:49.431Z,-1.09
2022-12-11T00:41:50.925Z,-1.09
2022-12-11T00:44:52.487Z,-1.12
2022-12-11T00:47:54.421Z,-1.09
2022-12-11T00:50:55.974Z,-1.11
2022-12-11T00:53:57.518Z,-1.13
2022-12-11T00:56:59.195Z,-1.14
2022-12-11T01:00:00.777Z,-1.14
2022-12-11T01:03:02.665Z,-1.11
2022-12-11T01:06:05.250Z,-1.11
2022-12-11T01:09:25.641Z,-1.10
2022-12-11T01:12:28.603Z,-1.08
2022-12-11T01:15:41.526Z,-1.11
2022-12-11T01:18:43.622Z,-1.15
2022-12-11T01:21:45.144Z,-1.16
2022-12-11T01:24:46.710Z,-1.15
2022-12-11T01:27:50.790Z,-1.16
2022-12-11T01:30:52.415Z,-1.19
2022-12-11T01:33:55.466Z,-1.22
2022-12-11T01:36:57.141Z,-1.27
2022-12-11T01:39:58.771Z,-1.26
2022-12-11T01:43:00.305Z,-1.26
2022-12-11T01:46:01.936Z,-1.29
2022-12-11T01:49:15.300Z,-1.32
2022-12-11T01:52:21.342Z,-1.32
2022-12-11T01:55:23.332Z,-1.34
2022-12-11T01:58:29.727Z,-1.33
2022-12-11T02:01:36.869Z,-1.35
2022-12-11T02:04:40.079Z,-1.35
2022-12-11T02:07:48.668Z,-1.43
2022-12-11T02:11:04.187Z,-1.33
2022-12-11T02:14:17.795Z,-1.31
2022-12-11T02:17:25.993Z,-1.29
2022-12-11T02:20:37.575Z,-1.29
2022-12-11T02:23:47.214Z,-1.31
2022-12-11T02:27:18.208Z,-1.28
2022-12-11T02:30:19.904Z,-1.27
2022-12-11T02:33:29.891Z,-1.28
2022-12-11T02:36:35.809Z,-1.29
2022-12-11T02:39:40.541Z,-1.27
2022-12-11T02:42:44.316Z,-1.27
2022-12-11T02:45:46.914Z,-1.26
2022-12-11T02:48:51.280Z,-1.27
2022-12-11T02:51:56.423Z,-1.26
2022-12-11T02:55:00.903Z,-1.27
2022-12-11T02:58:08.999Z,-1.23
2022-12-11T03:01:10.599Z,-1.24
2022-12-11T03:04:12.253Z,-1.27
2022-12-11T03:07:27.986Z,-1.25
2022-12-11T03:10:29.663Z,-1.26
2022-12-11T03:13:31.618Z,-1.24
2022-12-11T03:16:36.947Z,-1.19
2022-12-11T03:19:50.390Z,-1.22
2022-12-11T03:23:03.194Z,-1.21
2022-12-11T03:26:08.912Z,-1.20
2022-12-11T03:29:19.242Z,-1.20
2022-12-11T03:32:25.603Z,-1.21
2022-12-11T03:35:44.036Z,-1.23
2022-12-11T03:39:15.272Z,-1.23
2022-12-11T03:42:19.174Z,-1.23
2022-12-11T03:45:22.585Z,-1.21
2022-12-11T03:48:30.559Z,-1.22
2022-12-11T03:51:34.079Z,-1.19
2022-12-11T03:54:36.592Z,-1.19
2022-12-11T03:57:38.402Z,-1.18
2022-12-11T04:00:39.982Z,-1.18
2022-12-11T04:03:41.574Z,-1.16
2022-12-11T04:06:43.161Z,-1.17
2022-12-11T04:09:44.692Z,-1.19
2022-12-11T04:12:46.245Z,-1.17
2022-12-11T04:15:47.799Z,-1.19
2022-12-11T04:19:07.809Z,-1.17
2022-12-11T04:22:32.101Z,-1.17
2022-12-11T04:25:33.652Z,-1.19
2022-12-11T04:28:35.856Z,-1.17
2022-12-11T04:31:37.415Z,-1.17
2022-12-11T04:34:40.734Z,-1.15
2022-12-11T04:37:42.655Z,-1.17
2022-12-11T04:40:44.590Z,-1.19
2022-12-11T04:43:46.233Z,-1.21
2022-12-11T04:46:47.840Z,-1.24
2022-12-11T04:49:49.392Z,-1.27
2022-12-11T04:52:50.950Z,-1.28
2022-12-11T04:55:52.586Z,-1.32
2022-12-11T04:58:54.111Z,-1.34
2022-12-11T05:01:55.718Z,-1.30
2022-12-11T05:04:57.287Z,-1.29
2022-12-11T05:07:58.871Z,-1.29
2022-12-11T05:11:03.278Z,-1.30
2022-12-11T05:14:05.433Z,-1.33
2022-12-11T05:17:06.965Z,-1.29
2022-12-11T05:20:09.657Z,-1.28
2022-12-11T05:23:11.477Z,-1.28
2022-12-11T05:26:17.052Z,-1.27
2022-12-11T05:29:18.623Z,-1.26
2022-12-11T05:32:20.150Z,-1.27
2022-12-11T05:35:21.978Z,-1.26
2022-12-11T05:38:24.456Z,-1.26
2022-12-11T05:41:29.855Z,-1.25
2022-12-11T05:44:31.362Z,-1.24
2022-12-11T05:47:32.978Z,-1.27
2022-12-11T05:50:34.533Z,-1.28
2022-12-11T05:53:37.511Z,-1.27
2022-12-11T05:56:39.076Z,-1.33
2022-12-11T05:59:41.322Z,-1.37
2022-12-11T06:02:43.039Z,-1.37
2022-12-11T06:05:45.112Z,-1.38
2022-12-11T06:08:49.885Z,-1.39
2022-12-11T06:11:51.434Z,-1.42
2022-12-11T06:14:53.734Z,-1.39
2022-12-11T06:17:55.373Z,-1.40
2022-12-11T06:20:57.050Z,-1.39
2022-12-11T06:24:01.099Z,-1.40
2022-12-11T06:27:02.678Z,-1.40
2022-12-11T06:30:04.709Z,-1.43
2022-12-11T06:33:06.853Z,-1.44
2022-12-11T06:36:16.515Z,-1.49
2022-12-11T06:39:18.062Z,-1.50
2022-12-11T06:42:19.618Z,-1.55
2022-12-11T06:45:21.168Z,-1.60
2022-12-11T06:48:22.720Z,-1.62
2022-12-11T06:51:24.308Z,-1.64
2022-12-11T06:54:27.446Z,-1.68
2022-12-11T06:57:29.096Z,-1.70
2022-12-11T07:00:31.141Z,-1.70
2022-12-11T07:03:33.533Z,-1.72
2022-12-11T07:06:35.592Z,-1.75
2022-12-11T07:09:39.968Z,-1.81
2022-12-11T07:12:41.530Z,-1.86
2022-12-11T07:15:43.084Z,-1.88
2022-12-11T07:18:48.328Z,-1.97
2022-12-11T07:21:50.079Z,-1.94
2022-12-11T07:24:51.640Z,-1.97
2022-12-11T07:27:53.193Z,-1.98
2022-12-11T07:31:05.714Z,-2.00
2022-12-11T07:34:07.659Z,-2.02
2022-12-11T07:37:09.209Z,-2.04
2022-12-11T07:40:11.095Z,-2.08
2022-12-11T07:43:12.726Z,-2.09
2022-12-11T07:46:21.601Z,-2.08
2022-12-11T07:49:23.171Z,-2.11
2022-12-11T07:52:24.761Z,-2.14
2022-12-11T07:55:26.321Z,-2.14
2022-12-11T07:58:28.563Z,-2.18
2022-12-11T08:01:31.692Z,-2.18
2022-12-11T08:04:33.641Z,-2.20
2022-12-11T08:07:35.849Z,-2.22
2022-12-11T08:10:37.430Z,-2.22
2022-12-11T08:13:40.253Z,-2.23
2022-12-11T08:16:44.133Z,-2.25
2022-12-11T08:19:45.762Z,-2.30
2022-12-11T08:22:47.421Z,-2.30
2022-12-11T08:25:48.978Z,-2.31
2022-12-11T08:28:51.101Z,-2.37
2022-12-11T08:31:52.621Z,-2.33
2022-12-11T08:34:54.215Z,-2.32
2022-12-11T08:37:55.767Z,-2.30
2022-12-11T08:40:57.438Z,-2.31
2022-12-11T08:44:00.420Z,-2.29
2022-12-11T08:47:02.077Z,-2.28
2022-12-11T08:50:04.446Z,-2.29
2022-12-11T08:53:06.004Z,-2.29
2022-12-11T08:56:10.948Z,-2.31
2022-12-11T08:59:12.604Z,-2.33
2022-12-11T09:02:14.412Z,-2.34
2022-12-11T09:05:16.215Z,-2.34
2022-12-11T09:08:18.035Z,-2.32
2022-12-11T09:11:25.739Z,-2.32
2022-12-11T09:14:27.774Z,-2.33
2022-12-11T09:17:29.377Z,-2.32
2022-12-11T09:20:30.904Z,-2.31
2022-12-11T09:23:33.316Z,-2.27
2022-12-11T09:26:34.929Z,-2.25
2022-12-11T09:29:36.478Z,-2.26
2022-12-11T09:32:38.007Z,-2.23
2022-12-11T09:35:39.626Z,-2.24
2022-12-11T09:38:43.999Z,-2.26
2022-12-11T09:41:53.049Z,-2.19
2022-12-11T09:44:58.811Z,-2.20
2022-12-11T09:48:01.962Z,-2.13
2022-12-11T09:51:15.494Z,-2.13
2022-12-11T09:54:17.976Z,-2.12
2022-12-11T09:57:38.000Z,-2.11
2022-12-11T10:01:14.913Z,-2.12
2022-12-11T10:05:00.377Z,-2.10
2022-12-11T10:08:20.503Z,-2.07
2022-12-11T10:11:45.694Z,-2.05
2022-12-11T10:15:12.501Z,-2.01
2022-12-11T10:18:18.078Z,-1.94
2022-12-11T10:21:20.234Z,-1.93
2022-12-11T10:25:12.593Z,-1.90
2022-12-11T10:28:15.337Z,-1.84
2022-12-11T10:31:30.775Z,-1.82
2022-12-11T10:34:40.066Z,-1.84
2022-12-11T10:37:41.645Z,-1.85
2022-12-11T10:40:47.068Z,-1.82
2022-12-11T10:43:50.451Z,-1.83
2022-12-11T10:47:15.395Z,-1.81
2022-12-11T10:50:25.956Z,-1.78
2022-12-11T10:53:29.199Z,-1.86
2022-12-11T10:56:34.015Z,-1.72
2022-12-11T10:59:45.134Z,-1.68
2022-12-11T11:02:46.759Z,-1.64
2022-12-11T11:05:50.573Z,-1.58
2022-12-11T11:08:55.127Z,-1.52
2022-12-11T11:11:56.784Z,-1.47
2022-12-11T11:15:04.123Z,-1.42
2022-12-11T11:18:23.871Z,-1.38
2022-12-11T11:21:26.509Z,-1.33
2022-12-11T11:24:34.897Z,-1.26
2022-12-11T11:28:05.590Z,-1.27
2022-12-11T11:31:10.167Z,-1.27
2022-12-11T11:34:21.024Z,-1.27
2022-12-11T11:37:30.399Z,-1.26
2022-12-11T11:40:38.855Z,-1.21
2022-12-11T11:43:47.709Z,-1.21
2022-12-11T11:46:59.143Z,-1.18
2022-12-11T11:50:21.283Z,-1.17
2022-12-11T11:53:30.449Z,-1.15
2022-12-11T11:56:37.422Z,-1.13
2022-12-11T11:59:49.237Z,-1.13
2022-12-11T12:02:55.923Z,-1.14
2022-12-11T12:06:22.199Z,-1.12
2022-12-11T12:09:43.531Z,-1.12
2022-12-11T12:12:48.108Z,-1.09
2022-12-11T12:16:01.355Z,-1.06
2022-12-11T12:19:08.877Z,-1.03
2022-12-11T12:22:46.729Z,-1.03
2022-12-11T12:26:06.897Z,-0.98
2022-12-11T12:29:35.185Z,-0.94
2022-12-11T12:32:55.256Z,-0.93
2022-12-11T12:36:16.029Z,-0.92
2022-12-11T12:39:28.280Z,-0.92
2022-12-11T12:42:35.969Z,-0.93
2022-12-11T12:45:55.127Z,-0.92
2022-12-11T12:49:02.371Z,-0.92
2022-12-11T12:52:14.964Z,-0.93
2022-12-11T12:55:28.950Z,-0.93
2022-12-11T12:58:39.853Z,-0.93
2022-12-11T13:01:48.311Z,-1.00
2022-12-11T13:05:07.489Z,-0.92
2022-12-11T13:08:10.922Z,-0.93
2022-12-11T13:11:17.118Z,-0.92
2022-12-11T13:14:18.854Z,-0.91
2022-12-11T13:17:20.316Z,-0.88
2022-12-11T13:20:25.066Z,-0.85
2022-12-11T13:23:32.435Z,-0.83
2022-12-11T13:26:34.364Z,-0.86
2022-12-11T13:29:41.706Z,-0.94
2022-12-11T13:32:54.981Z,-0.92
2022-12-11T13:36:17.774Z,-0.91
2022-12-11T13:39:30.602Z,-0.93
2022-12-11T13:42:36.110Z,-0.94
2022-12-11T13:45:48.836Z,-0.97
2022-12-11T13:48:57.285Z,-1.01
2022-12-11T13:52:00.218Z,-1.01
2022-12-11T13:55:02.306Z,-1.03
2022-12-11T13:58:03.884Z,-1.01
2022-12-11T14:01:17.024Z,-1.04
2022-12-11T14:04:21.855Z,-1.02
2022-12-11T14:07:28.845Z,-1.03
2022-12-11T14:10:35.187Z,-1.05
2022-12-11T14:13:40.420Z,-1.03
2022-12-11T14:16:42.501Z,-1.07
2022-12-11T14:19:48.561Z,-1.06
2022-12-11T14:22:50.760Z,-1.07
2022-12-11T14:26:01.335Z,-1.07
2022-12-11T14:29:03.118Z,-1.10
2022-12-11T14:32:07.354Z,-1.09
2022-12-11T14:35:26.453Z,-1.17
2022-12-11T14:38:43.062Z,-1.12
2022-12-11T14:41:57.379Z,-1.16
2022-12-11T14:45:28.078Z,-1.13
2022-12-11T14:48:36.051Z,-1.19
2022-12-11T14:51:41.034Z,-1.18
2022-12-11T14:54:51.213Z,-1.18
2022-12-11T14:58:07.591Z,-1.24
2022-12-11T15:01:28.292Z,-1.25
2022-12-11T15:04:32.510Z,-1.27
2022-12-11T15:07:34.263Z,-1.29
2022-12-11T15:10:41.131Z,-1.29
2022-12-11T15:13:58.623Z,-1.29
2022-12-11T15:17:00.501Z,-1.30
2022-12-11T15:20:22.549Z,-1.35
2022-12-11T15:23:24.199Z,-1.37
2022-12-11T15:26:44.233Z,-1.40
2022-12-11T15:29:45.859Z,-1.41
2022-12-11T15:32:48.752Z,-1.51
2022-12-11T15:36:07.341Z,-1.42
2022-12-11T15:39:09.430Z,-1.46
2022-12-11T15:42:15.052Z,-1.44
2022-12-11T15:45:22.208Z,-1.45
2022-12-11T15:48:24.409Z,-1.47
2022-12-11T15:51:27.440Z,-1.46
2022-12-11T15:54:29.089Z,-1.45
2022-12-11T15:57:30.826Z,-1.46
2022-12-11T16:00:32.505Z,-1.47
2022-12-11T16:03:34.061Z,-1.45
2022-12-11T16:06:35.747Z,-1.47
2022-12-11T16:09:37.345Z,-1.49
2022-12-11T16:12:39.856Z,-1.50
2022-12-11T16:15:47.742Z,-1.51
2022-12-11T16:18:49.873Z,-1.55
2022-12-11T16:21:52.534Z,-1.60
2022-12-11T16:24:55.081Z,-1.52
2022-12-11T16:27:58.074Z,-1.53
2022-12-11T16:30:59.668Z,-1.52
2022-12-11T16:34:01.284Z,-1.55
2022-12-11T16:37:03.666Z,-1.55
2022-12-11T16:40:06.653Z,-1.56
2022-12-11T16:43:08.443Z,-1.57
2022-12-11T16:46:10.081Z,-1.60
2022-12-11T16:49:11.700Z,-1.61
2022-12-11T16:52:17.578Z,-1.60
2022-12-11T16:55:22.187Z,-1.63
2022-12-11T16:58:23.847Z,-1.63
2022-12-11T17:01:25.810Z,-1.63
2022-12-11T17:04:28.629Z,-1.63
2022-12-11T17:07:32.021Z,-1.64
2022-12-11T17:10:33.946Z,-1.66
2022-12-11T17:13:36.479Z,-1.67
2022-12-11T17:16:38.294Z,-1.65
2022-12-11T17:19:40.060Z,-1.63
2022-12-11T17:22:42.123Z,-1.63
2022-12-11T17:25:45.445Z,-1.68
2022-12-11T17:28:47.617Z,-1.73
2022-12-11T17:31:56.482Z,-1.73
2022-12-11T17:34:58.041Z,-1.74
2022-12-11T17:37:59.837Z,-1.74
2022-12-11T17:41:05.894Z,-1.77
2022-12-11T17:44:07.432Z,-1.75
2022-12-11T17:47:11.918Z,-1.76
2022-12-11T17:50:13.732Z,-1.80
2022-12-11T17:53:16.326Z,-1.78
2022-12-11T17:56:19.553Z,-1.80
2022-12-11T17:59:21.142Z,-1.80
2022-12-11T18:02:22.766Z,-1.80
2022-12-11T18:05:25.193Z,-1.81
2022-12-11T18:08:30.104Z,-1.80
2022-12-11T18:11:32.826Z,-1.83
2022-12-11T18:14:34.578Z,-1.84
2022-12-11T18:17:36.170Z,-1.88
2022-12-11T18:20:38.693Z,-1.90
2022-12-11T18:23:40.379Z,-1.93
2022-12-11T18:26:47.892Z,-1.93
2022-12-11T18:29:49.722Z,-1.94
2022-12-11T18:32:51.570Z,-1.97
2022-12-11T18:35:53.153Z,-1.97
2022-12-11T18:38:54.838Z,-1.97
2022-12-11T18:42:24.270Z,-2.00
2022-12-11T18:45:18.030Z,-2.01
2022-12-11T18:48:19.599Z,-2.04
2022-12-11T18:51:23.857Z,-2.05
2022-12-11T18:54:25.456Z,-2.06
2022-12-11T18:57:27.029Z,-2.08
2022-12-11T19:00:28.605Z,-2.09
2022-12-11T19:03:30.224Z,-2.12
2022-12-11T19:06:33.302Z,-2.15
2022-12-11T19:09:42.427Z,-2.15
2022-12-11T19:12:49.755Z,-2.16
2022-12-11T19:15:51.448Z,-2.21
2022-12-11T19:18:53.070Z,-2.22
2022-12-11T19:21:54.844Z,-2.23
2022-12-11T19:24:56.392Z,-2.25
2022-12-11T19:27:58.106Z,-2.28
2022-12-11T19:31:48.551Z,-2.39
2022-12-11T19:47:18.356Z,-2.38
2022-12-11T19:50:47.544Z,-2.38
2022-12-11T19:55:09.032Z,-2.31
2022-12-11T20:03:43.433Z,-2.40
2022-12-11T20:07:25.024Z,-2.33
2022-12-11T20:10:57.991Z,-2.36
2022-12-11T20:14:56.159Z,-2.32
2022-12-11T20:26:50.275Z,-2.45
2022-12-11T20:34:35.092Z,-2.45
2022-12-11T20:37:49.745Z,-2.48
2022-12-11T20:41:08.624Z,-2.46
2022-12-11T20:44:33.563Z,-2.38
2022-12-11T20:47:51.844Z,-2.53
2022-12-11T20:51:22.421Z,-2.40
2022-12-11T20:55:05.995Z,-2.41
2022-12-11T20:58:55.411Z,-2.54
2022-12-11T21:02:14.052Z,-2.43
2022-12-11T21:05:48.409Z,-2.49
2022-12-11T21:13:12.248Z,-2.54
2022-12-11T21:16:46.569Z,-2.41
2022-12-11T21:24:24.338Z,-2.54
2022-12-11T21:27:55.149Z,-2.43
2022-12-11T21:31:38.712Z,-2.55
2022-12-11T21:35:06.330Z,-2.44
2022-12-11T21:38:28.565Z,-2.51
2022-12-11T21:54:02.112Z,-2.53
2022-12-11T21:57:29.887Z,-2.63
2022-12-11T22:04:45.154Z,-2.60
2022-12-11T22:12:11.256Z,-2.71
2022-12-11T22:15:41.681Z,-2.72
2022-12-11T22:18:57.301Z,-2.68
2022-12-11T22:22:54.895Z,-2.67
2022-12-11T22:26:00.797Z,-2.70
2022-12-11T22:29:02.875Z,-2.83
2022-12-11T22:32:05.074Z,-2.79
2022-12-11T22:35:07.346Z,-2.79
2022-12-11T22:38:09.357Z,-2.94
2022-12-11T22:41:22.893Z,-2.97
2022-12-11T22:44:54.989Z,-2.85
2022-12-11T22:48:12.694Z,-2.86
2022-12-11T22:51:32.915Z,-3.02
2022-12-11T22:54:44.453Z,-2.99
2022-12-11T23:02:10.328Z,-2.99
2022-12-11T23:05:24.646Z,-3.05
2022-12-11T23:08:31.658Z,-3.05
2022-12-11T23:11:49.331Z,-2.93
2022-12-11T23:15:03.143Z,-2.97
2022-12-11T23:18:11.889Z,-3.01
2022-12-11T23:21:18.850Z,-3.07
2022-12-11T23:31:48.685Z,-3.06
2022-12-11T23:35:07.162Z,-2.96
2022-12-11T23:38:23.989Z,-2.97
2022-12-11T23:41:39.232Z,-2.93
2022-12-11T23:44:58.232Z,-2.89
2022-12-11T23:48:03.068Z,-2.96
2022-12-11T23:51:32.035Z,-2.92
2022-12-11T23:54:49.158Z,-2.83
2022-12-11T23:58:00.354Z,-2.92
